Time;durP1;ratioP1;P1;durP2;ratioP2;P2;SDS_P1;SDS_P2;PMS_P1;PMS_P2;Temp;Humidity;BMP_temperature;BMP_pressure;BME280_temperature;BME280_humidity;BME280_pressure;Samples;Min_cycle;Max_cycle;Signal;HPM_P1;HPM_P2
2022/10/10 00:00:17;;;;;;;;;;;20.60;51.90;;;;;;5029226;28;19917;-74
2022/10/10 00:02:43;;;;;;;;;;;20.60;51.90;;;;;;5030224;28;19924;-74
2022/10/10 00:05:08;;;;;;;;;;;20.60;51.80;;;;;;5031036;28;19983;-74
2022/10/10 00:07:34;;;;;;;;;;;20.60;51.80;;;;;;5026207;28;19978;-74
2022/10/10 00:09:59;;;;;;;;;;;20.60;51.80;;;;;;5049011;28;19916;-74
2022/10/10 00:12:25;;;;;;;;;;;20.50;51.80;;;;;;5048250;28;20003;-74
2022/10/10 00:14:50;;;;;;;;;;;20.60;51.80;;;;;;5046751;28;19920;-73
2022/10/10 00:17:15;;;;;;;;;;;20.50;51.80;;;;;;5029455;28;19920;-74
2022/10/10 00:19:41;;;;;;;;;;;20.50;51.90;;;;;;5027651;28;19935;-74
2022/10/10 00:22:06;;;;;;;;;;;20.50;51.80;;;;;;5047450;28;20006;-74
2022/10/10 00:24:32;;;;;;;;;;;20.50;51.80;;;;;;5037618;28;19924;-74
2022/10/10 00:26:57;;;;;;;;;;;20.50;51.60;;;;;;5029113;28;20035;-74
2022/10/10 00:29:22;;;;;;;;;;;20.50;51.60;;;;;;5030864;28;19913;-73
2022/10/10 00:31:48;;;;;;;;;;;20.50;51.60;;;;;;5028996;28;19917;-73
2022/10/10 00:34:13;;;;;;;;;;;20.50;51.70;;;;;;5031734;28;19917;-74
2022/10/10 00:36:39;;;;;;;;;;;20.40;51.60;;;;;;5045943;28;20003;-74
2022/10/10 00:39:04;;;;;;;;;;;20.40;51.50;;;;;;5047332;28;20016;-74
2022/10/10 00:41:30;;;;;;;;;;;20.50;51.50;;;;;;5049091;28;19955;-74
2022/10/10 00:44:06;;;;;;;;;;;20.50;51.40;;;;;;5043852;28;19970;-74
2022/10/10 00:46:32;;;;;;;;;;;20.50;51.50;;;;;;5029796;28;20214;-74
2022/10/10 00:48:57;;;;;;;;;;;20.40;51.40;;;;;;5040803;28;20003;-73
2022/10/10 00:51:23;;;;;;;;;;;20.50;51.30;;;;;;5045220;28;19964;-73
2022/10/10 00:53:49;;;;;;;;;;;20.50;51.30;;;;;;5026211;28;19971;-73
2022/10/10 00:56:16;;;;;;;;;;;20.50;51.30;;;;;;5027723;28;19975;-74
2022/10/10 00:58:42;;;;;;;;;;;20.40;51.20;;;;;;5030853;28;19913;-74
2022/10/10 01:01:07;;;;;;;;;;;20.50;51.20;;;;;;5014365;28;20086;-74
2022/10/10 01:03:33;;;;;;;;;;;20.40;51.00;;;;;;5030056;28;19924;-73
2022/10/10 01:05:58;;;;;;;;;;;20.50;51.20;;;;;;5045194;28;19929;-74
2022/10/10 01:08:24;;;;;;;;;;;20.40;51.10;;;;;;5040197;28;19917;-74
2022/10/10 01:11:01;;;;;;;;;;;20.40;51.10;;;;;;5032550;28;19971;-74
2022/10/10 01:13:29;;;;;;;;;;;20.40;51.10;;;;;;5045269;28;19920;-74
2022/10/10 01:16:05;;;;;;;;;;;20.30;51.10;;;;;;5041311;28;19942;-74
2022/10/10 01:18:34;;;;;;;;;;;20.30;51.10;;;;;;5017055;28;19936;-74
2022/10/10 01:21:08;;;;;;;;;;;20.30;51.10;;;;;;5051256;28;20456;-74
2022/10/10 01:23:34;;;;;;;;;;;20.30;51.00;;;;;;5050428;28;19920;-73
2022/10/10 01:26:10;;;;;;;;;;;20.40;51.00;;;;;;5041515;28;19916;-74
2022/10/10 01:28:35;;;;;;;;;;;20.40;50.80;;;;;;5043172;28;19999;-73
2022/10/10 01:31:01;;;;;;;;;;;20.40;50.60;;;;;;5040116;28;20004;-73
2022/10/10 01:33:28;;;;;;;;;;;20.50;50.40;;;;;;5045236;28;19998;-74
2022/10/10 01:35:58;;;;;;;;;;;20.60;50.30;;;;;;5026632;28;19932;-74
2022/10/10 01:38:27;;;;;;;;;;;20.70;50.00;;;;;;5040431;28;19923;-73
2022/10/10 01:41:01;;;;;;;;;;;20.80;49.80;;;;;;5043198;28;20294;-73
2022/10/10 01:43:26;;;;;;;;;;;20.90;49.60;;;;;;5044389;28;19964;-74
2022/10/10 01:45:52;;;;;;;;;;;21.00;49.40;;;;;;5024774;28;19997;-74
2022/10/10 01:48:22;;;;;;;;;;;21.00;49.20;;;;;;5031168;28;19970;-73
2022/10/10 01:50:47;;;;;;;;;;;21.10;49.20;;;;;;5022626;28;19927;-74
2022/10/10 01:53:18;;;;;;;;;;;21.10;49.10;;;;;;5030813;28;20690;-73
2022/10/10 01:55:43;;;;;;;;;;;21.10;49.10;;;;;;5028051;28;20007;-73
2022/10/10 01:58:15;;;;;;;;;;;21.10;49.10;;;;;;5050361;28;20003;-74
2022/10/10 02:00:44;;;;;;;;;;;21.00;49.00;;;;;;5035567;28;20377;-73
2022/10/10 02:03:18;;;;;;;;;;;21.00;49.10;;;;;;5032089;28;19913;-73
2022/10/10 02:05:51;;;;;;;;;;;20.90;49.00;;;;;;5028207;28;19995;-73
2022/10/10 02:08:28;;;;;;;;;;;20.90;49.70;;;;;;5033842;28;19924;-73
2022/10/10 02:10:54;;;;;;;;;;;20.90;49.10;;;;;;5028035;28;20334;-74
2022/10/10 02:13:20;;;;;;;;;;;20.80;49.10;;;;;;5031031;28;19990;-73
2022/10/10 02:15:46;;;;;;;;;;;20.80;49.10;;;;;;5029046;28;19987;-73
2022/10/10 02:18:13;;;;;;;;;;;20.80;49.10;;;;;;5030878;28;19936;-74
2022/10/10 02:20:38;;;;;;;;;;;20.80;49.10;;;;;;5029045;28;19928;-74
2022/10/10 02:23:04;;;;;;;;;;;20.80;49.10;;;;;;5046074;28;19917;-73
2022/10/10 02:25:30;;;;;;;;;;;20.80;49.10;;;;;;5030739;28;19919;-74
2022/10/10 02:28:07;;;;;;;;;;;20.80;49.10;;;;;;5029544;28;19917;-73
2022/10/10 02:30:33;;;;;;;;;;;20.70;49.10;;;;;;5029350;28;19912;-73
2022/10/10 02:32:59;;;;;;;;;;;20.70;49.10;;;;;;5025181;28;20017;-73
2022/10/10 02:35:28;;;;;;;;;;;20.70;49.10;;;;;;5049757;28;19912;-74
2022/10/10 02:37:53;;;;;;;;;;;20.70;49.10;;;;;;5014398;28;19916;-74
2022/10/10 02:40:19;;;;;;;;;;;20.60;49.20;;;;;;5035269;28;20019;-73
2022/10/10 02:42:45;;;;;;;;;;;20.70;49.30;;;;;;5029847;28;19920;-73
2022/10/10 02:45:10;;;;;;;;;;;20.70;49.30;;;;;;5027420;28;19925;-73
2022/10/10 02:47:36;;;;;;;;;;;20.60;49.10;;;;;;5029007;28;19990;-74
2022/10/10 02:50:01;;;;;;;;;;;20.60;49.20;;;;;;5049363;28;19917;-73
2022/10/10 02:52:27;;;;;;;;;;;20.60;49.20;;;;;;5017127;28;19913;-74
2022/10/10 02:54:52;;;;;;;;;;;20.60;49.20;;;;;;5048556;28;19974;-73
2022/10/10 02:57:18;;;;;;;;;;;20.60;49.30;;;;;;5033151;28;19920;-74
2022/10/10 02:59:43;;;;;;;;;;;20.40;49.40;;;;;;5047554;28;20368;-74
2022/10/10 03:02:09;;;;;;;;;;;20.40;49.50;;;;;;5032887;28;20265;-73
2022/10/10 03:04:34;;;;;;;;;;;20.40;49.50;;;;;;5049167;28;20230;-73
2022/10/10 03:07:00;;;;;;;;;;;20.40;49.40;;;;;;5030658;28;19947;-73
2022/10/10 03:09:26;;;;;;;;;;;20.40;49.60;;;;;;5049229;28;20011;-73
2022/10/10 03:11:51;;;;;;;;;;;20.40;49.60;;;;;;5028537;28;19913;-73
2022/10/10 03:14:17;;;;;;;;;;;20.30;49.70;;;;;;5048002;28;19916;-73
2022/10/10 03:16:42;;;;;;;;;;;20.30;49.70;;;;;;5043675;28;19920;-74
2022/10/10 03:19:08;;;;;;;;;;;20.40;49.60;;;;;;5050357;28;19966;-73
2022/10/10 03:21:34;;;;;;;;;;;20.50;49.60;;;;;;5048333;28;19959;-73
2022/10/10 03:23:59;;;;;;;;;;;20.50;49.30;;;;;;5043482;28;19923;-74
2022/10/10 03:26:25;;;;;;;;;;;20.60;49.20;;;;;;5048554;28;20003;-74
2022/10/10 03:28:50;;;;;;;;;;;20.70;49.00;;;;;;5050322;28;19917;-74
2022/10/10 03:31:16;;;;;;;;;;;20.70;48.90;;;;;;5047392;28;19957;-74
2022/10/10 03:33:41;;;;;;;;;;;20.80;48.80;;;;;;5029456;28;20427;-73
2022/10/10 03:36:07;;;;;;;;;;;20.80;48.70;;;;;;5048547;28;19917;-73
2022/10/10 03:38:32;;;;;;;;;;;20.90;48.60;;;;;;5047969;28;20012;-74
2022/10/10 03:40:58;;;;;;;;;;;20.90;48.50;;;;;;5047768;28;20002;-74
2022/10/10 03:43:23;;;;;;;;;;;20.90;48.50;;;;;;5043807;28;20227;-74
2022/10/10 03:45:49;;;;;;;;;;;20.90;48.50;;;;;;5030396;28;19964;-74
2022/10/10 03:48:14;;;;;;;;;;;20.90;48.50;;;;;;5046418;28;19947;-74
2022/10/10 03:50:40;;;;;;;;;;;20.90;48.40;;;;;;5014042;28;19938;-74
2022/10/10 03:53:05;;;;;;;;;;;20.90;48.40;;;;;;5029516;28;19921;-73
2022/10/10 03:55:31;;;;;;;;;;;20.90;48.40;;;;;;5025483;28;20276;-73
2022/10/10 03:57:56;;;;;;;;;;;20.90;48.40;;;;;;5052873;28;19916;-73
2022/10/10 04:00:22;;;;;;;;;;;20.90;48.50;;;;;;5045563;28;20376;-73
2022/10/10 04:02:47;;;;;;;;;;;20.80;48.40;;;;;;5017009;28;20413;-73
2022/10/10 04:05:12;;;;;;;;;;;20.80;48.40;;;;;;5049034;28;19927;-73
2022/10/10 04:07:40;;;;;;;;;;;20.80;48.40;;;;;;5033657;28;19966;-73
2022/10/10 04:10:06;;;;;;;;;;;20.80;48.40;;;;;;5028208;28;20000;-73
2022/10/10 04:12:31;;;;;;;;;;;20.70;48.40;;;;;;5048718;28;20042;-74
2022/10/10 04:14:57;;;;;;;;;;;20.70;48.40;;;;;;5052800;28;19916;-74
2022/10/10 04:17:22;;;;;;;;;;;20.70;48.40;;;;;;5043733;28;19921;-73
2022/10/10 04:19:47;;;;;;;;;;;20.70;48.50;;;;;;5032612;28;19921;-74
2022/10/10 04:22:13;;;;;;;;;;;20.70;48.50;;;;;;5035152;28;20028;-73
2022/10/10 04:24:38;;;;;;;;;;;20.70;48.50;;;;;;5026732;28;19924;-73
2022/10/10 04:27:04;;;;;;;;;;;20.70;48.50;;;;;;5030438;28;19925;-73
2022/10/10 04:29:29;;;;;;;;;;;20.70;48.40;;;;;;5050231;28;19918;-73
2022/10/10 04:31:55;;;;;;;;;;;20.60;48.40;;;;;;5032016;28;19913;-73
2022/10/10 04:34:21;;;;;;;;;;;20.60;48.40;;;;;;5030495;28;19956;-73
2022/10/10 04:36:46;;;;;;;;;;;20.50;48.40;;;;;;5030431;28;19916;-73
2022/10/10 04:39:12;;;;;;;;;;;20.50;48.50;;;;;;5031306;28;19913;-73
2022/10/10 04:41:37;;;;;;;;;;;20.50;48.50;;;;;;5025097;28;19912;-72
2022/10/10 04:44:02;;;;;;;;;;;20.50;48.40;;;;;;5027414;28;19922;-73
2022/10/10 04:46:28;;;;;;;;;;;20.50;48.40;;;;;;5027975;28;19960;-74
2022/10/10 04:48:53;;;;;;;;;;;20.50;48.40;;;;;;5025052;28;19917;-74
2022/10/10 04:51:19;;;;;;;;;;;20.50;48.50;;;;;;5027704;28;19932;-73
2022/10/10 04:53:44;;;;;;;;;;;20.40;48.50;;;;;;5028017;28;20003;-73
2022/10/10 04:56:10;;;;;;;;;;;20.50;48.50;;;;;;5046934;28;19940;-73
2022/10/10 04:58:35;;;;;;;;;;;20.50;48.40;;;;;;5046704;28;19921;-73
2022/10/10 05:01:00;;;;;;;;;;;20.60;48.40;;;;;;5028610;28;19921;-73
2022/10/10 05:03:26;;;;;;;;;;;20.60;48.40;;;;;;5025561;28;19924;-73
2022/10/10 05:05:51;;;;;;;;;;;20.60;48.30;;;;;;5028915;28;20111;-73
2022/10/10 05:08:17;;;;;;;;;;;20.70;48.20;;;;;;5047137;28;19959;-73
2022/10/10 05:10:43;;;;;;;;;;;20.80;48.20;;;;;;5044077;28;19919;-73
2022/10/10 05:13:09;;;;;;;;;;;20.70;48.10;;;;;;5029649;28;19921;-73
2022/10/10 05:15:35;;;;;;;;;;;20.70;48.00;;;;;;5011442;28;19912;-73
2022/10/10 05:18:00;;;;;;;;;;;20.70;48.20;;;;;;5044009;28;19940;-73
2022/10/10 05:20:26;;;;;;;;;;;20.60;48.30;;;;;;5043955;28;19913;-73
2022/10/10 05:22:52;;;;;;;;;;;20.60;48.40;;;;;;5031992;28;19917;-73
2022/10/10 05:25:17;;;;;;;;;;;20.60;48.50;;;;;;5027464;28;19917;-73
2022/10/10 05:27:43;;;;;;;;;;;20.50;48.50;;;;;;5045582;28;23907;-73
2022/10/10 05:30:09;;;;;;;;;;;20.50;48.60;;;;;;5047415;28;19974;-74
2022/10/10 05:32:34;;;;;;;;;;;20.60;48.60;;;;;;5046650;28;19913;-72
2022/10/10 05:35:00;;;;;;;;;;;20.50;48.60;;;;;;5044413;28;19913;-73
2022/10/10 05:37:25;;;;;;;;;;;20.50;48.60;;;;;;5028196;28;19920;-73
2022/10/10 05:39:50;;;;;;;;;;;20.50;48.60;;;;;;5026571;28;19913;-73
2022/10/10 05:42:16;;;;;;;;;;;20.50;48.60;;;;;;5045232;28;19996;-72
2022/10/10 05:44:41;;;;;;;;;;;20.50;48.70;;;;;;5039348;28;20526;-73
2022/10/10 05:47:07;;;;;;;;;;;20.50;49.30;;;;;;5045935;28;20368;-73
2022/10/10 05:49:32;;;;;;;;;;;20.40;48.60;;;;;;5047889;28;19955;-73
2022/10/10 05:51:58;;;;;;;;;;;20.40;48.70;;;;;;5045931;28;19916;-73
2022/10/10 05:54:23;;;;;;;;;;;20.40;48.90;;;;;;5045494;28;20377;-73
2022/10/10 05:56:48;;;;;;;;;;;20.40;48.80;;;;;;5014978;28;20447;-73
2022/10/10 05:59:14;;;;;;;;;;;20.40;49.40;;;;;;5044592;28;19913;-73
2022/10/10 06:01:39;;;;;;;;;;;20.40;48.80;;;;;;5024612;28;20015;-73
2022/10/10 06:04:05;;;;;;;;;;;20.40;48.90;;;;;;5048420;28;19921;-73
2022/10/10 06:06:30;;;;;;;;;;;20.40;49.00;;;;;;5030243;28;19964;-73
2022/10/10 06:08:56;;;;;;;;;;;20.40;49.00;;;;;;5045016;28;20007;-73
2022/10/10 06:11:23;;;;;;;;;;;20.40;48.90;;;;;;5028956;28;19939;-73
2022/10/10 06:13:52;;;;;;;;;;;20.40;49.00;;;;;;5025866;28;19927;-73
2022/10/10 06:16:22;;;;;;;;;;;20.40;49.00;;;;;;5049067;28;19939;-73
2022/10/10 06:18:47;;;;;;;;;;;20.40;48.90;;;;;;5045732;28;19927;-73
2022/10/10 06:21:12;;;;;;;;;;;20.40;48.80;;;;;;5043499;28;19943;-73
2022/10/10 06:23:38;;;;;;;;;;;20.40;48.70;;;;;;5045335;28;19968;-73
2022/10/10 06:26:03;;;;;;;;;;;20.50;48.80;;;;;;5027726;28;19967;-73
2022/10/10 06:28:29;;;;;;;;;;;20.50;48.80;;;;;;5028315;28;20336;-73
2022/10/10 06:30:57;;;;;;;;;;;20.50;48.70;;;;;;5013379;28;19992;-73
2022/10/10 06:33:23;;;;;;;;;;;20.40;48.70;;;;;;5026357;28;20735;-73
2022/10/10 06:35:48;;;;;;;;;;;20.50;48.70;;;;;;5046606;28;19979;-73
2022/10/10 06:38:14;;;;;;;;;;;20.40;48.70;;;;;;5046913;28;19917;-73
2022/10/10 06:40:39;;;;;;;;;;;20.50;48.70;;;;;;5031043;28;19920;-72
2022/10/10 06:43:10;;;;;;;;;;;20.50;48.70;;;;;;5049746;28;19948;-72
2022/10/10 06:45:36;;;;;;;;;;;20.60;48.60;;;;;;5054597;28;19924;-73
2022/10/10 06:48:02;;;;;;;;;;;20.60;48.60;;;;;;5031395;28;20330;-73
2022/10/10 06:50:27;;;;;;;;;;;20.60;48.50;;;;;;5048687;28;19913;-72
2022/10/10 06:52:52;;;;;;;;;;;20.60;48.40;;;;;;5048899;28;20535;-73
2022/10/10 06:55:18;;;;;;;;;;;20.70;48.50;;;;;;5017499;28;19920;-73
2022/10/10 06:57:43;;;;;;;;;;;20.60;48.40;;;;;;5034804;28;19920;-74
2022/10/10 07:00:09;;;;;;;;;;;20.70;48.50;;;;;;5045292;28;19920;-73
2022/10/10 07:02:39;;;;;;;;;;;20.60;48.50;;;;;;5049577;28;19912;-72
2022/10/10 07:05:15;;;;;;;;;;;20.60;48.50;;;;;;5029488;28;20004;-73
2022/10/10 07:07:40;;;;;;;;;;;20.50;48.70;;;;;;5028499;28;25067;-72
2022/10/10 07:10:06;;;;;;;;;;;20.50;48.90;;;;;;5031486;28;19921;-73
2022/10/10 07:12:32;;;;;;;;;;;20.60;48.90;;;;;;5030325;28;19927;-73
2022/10/10 07:14:57;;;;;;;;;;;20.80;48.60;;;;;;5028492;28;19917;-73
2022/10/10 07:17:23;;;;;;;;;;;20.90;48.30;;;;;;5029906;28;19920;-73
2022/10/10 07:19:48;;;;;;;;;;;21.00;48.30;;;;;;5027612;28;19921;-73
2022/10/10 07:22:13;;;;;;;;;;;21.10;48.30;;;;;;5009943;28;19960;-73
2022/10/10 07:24:39;;;;;;;;;;;21.30;48.00;;;;;;5031278;28;19994;-73
2022/10/10 07:27:04;;;;;;;;;;;21.50;47.80;;;;;;5030521;28;19921;-73
2022/10/10 07:29:30;;;;;;;;;;;21.60;47.50;;;;;;5035665;28;19978;-73
2022/10/10 07:31:56;;;;;;;;;;;21.70;47.30;;;;;;5025506;28;19917;-73
2022/10/10 07:34:21;;;;;;;;;;;21.80;47.20;;;;;;5025048;28;19918;-74
2022/10/10 07:36:49;;;;;;;;;;;21.80;47.20;;;;;;5031709;28;19913;-74
2022/10/10 07:39:24;;;;;;;;;;;22.00;46.90;;;;;;5015623;28;19913;-73
2022/10/10 07:41:50;;;;;;;;;;;22.20;46.30;;;;;;5023948;28;20538;-73
2022/10/10 07:44:16;;;;;;;;;;;22.50;46.10;;;;;;5026539;28;19921;-73
2022/10/10 07:46:42;;;;;;;;;;;22.70;45.70;;;;;;5027794;28;19920;-73
2022/10/10 07:49:07;;;;;;;;;;;22.90;45.40;;;;;;5030916;28;20454;-73
2022/10/10 07:51:32;;;;;;;;;;;23.00;45.20;;;;;;5023245;28;20300;-73
2022/10/10 07:53:58;;;;;;;;;;;23.00;45.00;;;;;;5017520;28;20001;-74
2022/10/10 07:56:24;;;;;;;;;;;23.10;45.00;;;;;;5030411;28;19917;-75
2022/10/10 07:58:49;;;;;;;;;;;23.20;45.00;;;;;;5028610;28;19913;-73
2022/10/10 08:01:14;;;;;;;;;;;23.20;45.40;;;;;;5029060;28;19913;-74
2022/10/10 08:03:40;;;;;;;;;;;23.30;44.70;;;;;;5026125;28;19921;-74
2022/10/10 08:06:06;;;;;;;;;;;23.40;44.60;;;;;;5012185;28;20739;-74
2022/10/10 08:08:32;;;;;;;;;;;23.50;44.50;;;;;;5013312;28;19920;-74
2022/10/10 08:10:57;;;;;;;;;;;23.50;44.30;;;;;;5009829;28;20012;-74
2022/10/10 08:13:23;;;;;;;;;;;23.60;44.30;;;;;;5014821;28;19921;-74
2022/10/10 08:15:49;;;;;;;;;;;23.70;44.30;;;;;;5014652;28;19979;-74
2022/10/10 08:18:14;;;;;;;;;;;23.70;44.30;;;;;;5014419;28;20324;-74
2022/10/10 08:20:40;;;;;;;;;;;23.70;44.30;;;;;;5011909;28;19917;-74
2022/10/10 08:23:05;;;;;;;;;;;23.70;44.20;;;;;;5010653;28;19949;-73
2022/10/10 08:25:31;;;;;;;;;;;23.70;44.30;;;;;;5015287;28;19940;-73
2022/10/10 08:27:56;;;;;;;;;;;23.70;44.40;;;;;;5010714;28;19913;-73
2022/10/10 08:30:22;;;;;;;;;;;23.70;44.40;;;;;;5013519;28;19917;-74
2022/10/10 08:32:47;;;;;;;;;;;23.70;44.50;;;;;;5015968;28;19914;-74
2022/10/10 08:35:13;;;;;;;;;;;23.70;44.70;;;;;;5012636;28;20116;-74
2022/10/10 08:37:38;;;;;;;;;;;23.70;44.80;;;;;;5014152;28;19921;-73
2022/10/10 08:40:04;;;;;;;;;;;23.60;44.70;;;;;;5013807;28;20288;-74
2022/10/10 08:42:37;;;;;;;;;;;23.60;44.90;;;;;;5007790;28;20297;-74
2022/10/10 08:45:03;;;;;;;;;;;23.60;45.00;;;;;;5015429;28;19924;-74
2022/10/10 08:47:40;;;;;;;;;;;23.60;45.00;;;;;;5017268;28;19921;-74
2022/10/10 08:50:12;;;;;;;;;;;23.60;45.00;;;;;;5011611;28;20004;-73
2022/10/10 08:53:16;;;;;;;;;;;23.60;45.00;;;;;;4996397;28;19963;-73
2022/10/10 08:55:42;;;;;;;;;;;23.70;45.00;;;;;;4962861;28;19921;-74
2022/10/10 08:58:13;;;;;;;;;;;23.70;45.00;;;;;;4946368;28;19918;-73
2022/10/10 09:00:40;;;;;;;;;;;23.70;44.90;;;;;;4993710;28;20418;-74
2022/10/10 09:03:11;;;;;;;;;;;23.80;44.90;;;;;;5014073;28;19913;-74
2022/10/10 09:05:40;;;;;;;;;;;23.70;44.90;;;;;;5025531;28;19957;-73
2022/10/10 09:08:17;;;;;;;;;;;23.70;44.90;;;;;;5031614;28;19913;-74
2022/10/10 09:10:46;;;;;;;;;;;23.70;44.90;;;;;;5024466;28;20376;-73
2022/10/10 09:13:11;;;;;;;;;;;23.80;44.90;;;;;;5032855;28;19968;-73
2022/10/10 09:15:42;;;;;;;;;;;23.80;44.80;;;;;;5039654;28;19913;-73
2022/10/10 09:18:07;;;;;;;;;;;23.80;44.80;;;;;;5030641;28;19966;-74
2022/10/10 09:20:38;;;;;;;;;;;23.80;44.80;;;;;;5032927;28;19916;-73
2022/10/10 09:23:04;;;;;;;;;;;23.80;44.80;;;;;;5030219;28;19913;-74
2022/10/10 09:25:30;;;;;;;;;;;23.80;44.80;;;;;;5027067;28;20392;-73
2022/10/10 09:28:06;;;;;;;;;;;23.80;44.90;;;;;;5005703;28;20002;-73
2022/10/10 09:30:33;;;;;;;;;;;23.70;45.10;;;;;;5021861;28;20043;-73
2022/10/10 09:33:09;;;;;;;;;;;23.60;45.30;;;;;;5035777;28;19920;-73
2022/10/10 09:35:36;;;;;;;;;;;23.60;45.40;;;;;;5034753;28;20059;-73
2022/10/10 09:38:10;;;;;;;;;;;23.60;45.40;;;;;;5028556;28;19913;-73
2022/10/10 09:40:36;;;;;;;;;;;23.70;45.40;;;;;;5027656;28;20292;-73
2022/10/10 09:43:12;;;;;;;;;;;23.70;45.40;;;;;;5023567;28;19913;-73
2022/10/10 09:45:40;;;;;;;;;;;23.80;45.30;;;;;;5028460;28;19928;-73
2022/10/10 09:48:07;;;;;;;;;;;23.80;45.20;;;;;;5025568;28;20379;-74
2022/10/10 09:50:32;;;;;;;;;;;23.90;45.20;;;;;;5011256;28;19932;-73
2022/10/10 09:52:58;;;;;;;;;;;23.90;45.20;;;;;;5019739;28;19917;-73
2022/10/10 09:55:36;;;;;;;;;;;23.90;45.20;;;;;;5026199;28;19914;-73
2022/10/10 09:58:15;;;;;;;;;;;24.00;45.20;;;;;;5029039;28;19920;-73
2022/10/10 10:00:40;;;;;;;;;;;24.00;45.10;;;;;;5029619;28;19967;-74
2022/10/10 10:03:16;;;;;;;;;;;24.10;45.10;;;;;;5028155;28;19972;-74
2022/10/10 10:05:46;;;;;;;;;;;24.10;45.10;;;;;;5045141;28;19920;-74
2022/10/10 10:08:18;;;;;;;;;;;24.10;45.00;;;;;;5017181;28;20530;-75
2022/10/10 10:10:43;;;;;;;;;;;24.20;44.90;;;;;;5032430;28;19920;-74
2022/10/10 10:13:20;;;;;;;;;;;24.10;45.00;;;;;;5048694;28;19921;-73
2022/10/10 10:15:46;;;;;;;;;;;24.10;45.20;;;;;;5034129;28;19931;-74
2022/10/10 10:18:19;;;;;;;;;;;24.00;45.30;;;;;;5028274;28;20048;-73
2022/10/10 10:20:45;;;;;;;;;;;24.00;45.50;;;;;;5037341;28;19920;-73
2022/10/10 10:23:24;;;;;;;;;;;24.00;45.40;;;;;;5029279;28;19916;-74
2022/10/10 10:25:57;;;;;;;;;;;24.00;45.30;;;;;;5034660;28;19917;-73
2022/10/10 10:28:23;;;;;;;;;;;24.00;45.30;;;;;;5025630;28;19917;-74
2022/10/10 10:30:48;;;;;;;;;;;24.10;45.30;;;;;;5050302;28;19973;-73
2022/10/10 10:33:33;;;;;;;;;;;24.10;45.30;;;;;;5014797;28;19979;-73
2022/10/10 10:36:04;;;;;;;;;;;24.10;45.30;;;;;;5045024;28;19928;-74
2022/10/10 10:38:39;;;;;;;;;;;24.10;45.20;;;;;;5035332;28;20380;-73
2022/10/10 10:41:05;;;;;;;;;;;24.20;45.40;;;;;;5053653;28;19913;-73
2022/10/10 10:43:36;;;;;;;;;;;24.20;45.40;;;;;;5048280;28;19919;-73
2022/10/10 10:46:04;;;;;;;;;;;24.20;45.40;;;;;;5047049;28;19913;-73
2022/10/10 10:48:38;;;;;;;;;;;24.20;45.40;;;;;;5050252;28;19921;-73
2022/10/10 10:51:17;;;;;;;;;;;24.30;45.40;;;;;;5055469;28;20487;-74
2022/10/10 10:53:55;;;;;;;;;;;24.30;45.30;;;;;;5036843;28;19912;-74
2022/10/10 10:56:32;;;;;;;;;;;24.40;45.30;;;;;;5033109;28;19936;-73
2022/10/10 10:59:04;;;;;;;;;;;24.40;45.40;;;;;;5035385;28;20704;-74
2022/10/10 11:01:40;;;;;;;;;;;24.40;45.30;;;;;;5035066;28;19917;-73
2022/10/10 11:04:15;;;;;;;;;;;24.40;45.30;;;;;;5010329;28;20508;-74
2022/10/10 11:06:59;;;;;;;;;;;24.40;45.30;;;;;;5052325;28;19921;-73
2022/10/10 11:09:35;;;;;;;;;;;24.50;45.30;;;;;;5050673;28;19932;-74
2022/10/10 11:12:20;;;;;;;;;;;24.40;45.30;;;;;;5033934;28;19913;-73
2022/10/10 11:14:46;;;;;;;;;;;24.50;45.40;;;;;;5013575;28;20579;-73
2022/10/10 11:17:13;;;;;;;;;;;24.50;45.40;;;;;;5049703;28;20269;-73
2022/10/10 11:19:43;;;;;;;;;;;24.50;45.40;;;;;;5048512;28;19916;-74
2022/10/10 11:22:16;;;;;;;;;;;24.50;45.30;;;;;;5030354;28;20016;-74
2022/10/10 11:24:43;;;;;;;;;;;24.50;45.30;;;;;;5035541;28;19943;-73
2022/10/10 11:27:14;;;;;;;;;;;24.60;45.40;;;;;;5029471;28;20336;-74
2022/10/10 11:29:48;;;;;;;;;;;24.60;45.30;;;;;;5055214;28;19924;-73
2022/10/10 11:32:15;;;;;;;;;;;24.70;45.30;;;;;;5026568;28;19917;-74
2022/10/10 11:34:44;;;;;;;;;;;24.70;45.20;;;;;;5030583;28;20009;-74
2022/10/10 11:37:12;;;;;;;;;;;24.70;45.20;;;;;;5044896;28;19935;-74
2022/10/10 11:39:40;;;;;;;;;;;24.70;45.30;;;;;;5034715;28;19917;-74
2022/10/10 11:42:06;;;;;;;;;;;24.60;45.30;;;;;;5024166;28;20388;-75
2022/10/10 11:44:33;;;;;;;;;;;24.50;45.60;;;;;;5025424;28;19916;-75
2022/10/10 11:46:59;;;;;;;;;;;24.40;45.70;;;;;;5034223;28;19970;-74
2022/10/10 11:49:57;;;;;;;;;;;24.40;45.80;;;;;;5035029;28;19930;-74
2022/10/10 11:52:48;;;;;;;;;;;24.40;45.70;;;;;;4992277;28;20390;-75
2022/10/10 11:55:14;;;;;;;;;;;24.50;45.70;;;;;;5049662;28;19959;-73
2022/10/10 11:57:46;;;;;;;;;;;24.60;45.70;;;;;;5051252;28;19913;-74
2022/10/10 12:00:13;;;;;;;;;;;24.70;45.60;;;;;;5030867;28;19952;-75
2022/10/10 12:02:41;;;;;;;;;;;24.70;45.40;;;;;;5031483;28;20596;-75
2022/10/10 12:05:20;;;;;;;;;;;24.70;45.40;;;;;;5013219;28;19921;-74
2022/10/10 12:07:56;;;;;;;;;;;24.70;45.30;;;;;;5032261;28;19917;-75
2022/10/10 12:10:24;;;;;;;;;;;24.70;45.40;;;;;;5032941;28;19924;-75
2022/10/10 12:12:51;;;;;;;;;;;24.70;45.50;;;;;;5044876;28;19916;-75
2022/10/10 12:15:23;;;;;;;;;;;24.70;45.60;;;;;;5028727;28;19920;-75
2022/10/10 12:17:48;;;;;;;;;;;24.70;45.70;;;;;;5024227;28;20323;-75
2022/10/10 12:20:14;;;;;;;;;;;24.70;45.70;;;;;;5030757;28;19917;-74
2022/10/10 12:22:39;;;;;;;;;;;24.60;45.80;;;;;;5046096;28;19963;-75
2022/10/10 12:25:06;;;;;;;;;;;24.60;45.80;;;;;;5042400;28;20351;-75
2022/10/10 12:27:42;;;;;;;;;;;24.70;45.80;;;;;;5035287;28;19913;-74
2022/10/10 12:30:17;;;;;;;;;;;24.70;45.80;;;;;;5034816;28;21189;-75
2022/10/10 12:32:43;;;;;;;;;;;24.70;45.80;;;;;;5043077;28;19924;-75
2022/10/10 12:35:27;;;;;;;;;;;24.60;45.90;;;;;;5029549;28;19927;-74
2022/10/10 12:38:19;;;;;;;;;;;24.50;46.10;;;;;;5042449;28;19917;-74
2022/10/10 12:40:56;;;;;;;;;;;24.40;46.30;;;;;;5041446;28;19924;-74
2022/10/10 12:43:22;;;;;;;;;;;24.40;46.30;;;;;;5038901;28;19974;-74
2022/10/10 12:45:54;;;;;;;;;;;24.50;46.30;;;;;;5041318;28;20392;-74
2022/10/10 12:48:19;;;;;;;;;;;24.60;46.30;;;;;;5045332;28;20051;-74
2022/10/10 12:50:53;;;;;;;;;;;24.70;46.10;;;;;;5039223;28;19995;-75
2022/10/10 12:53:19;;;;;;;;;;;24.70;45.90;;;;;;5044769;28;19916;-74
2022/10/10 12:55:45;;;;;;;;;;;24.80;45.90;;;;;;5040539;28;19920;-75
2022/10/10 12:58:15;;;;;;;;;;;24.90;45.90;;;;;;5025795;28;20039;-75
2022/10/10 13:00:41;;;;;;;;;;;24.90;45.80;;;;;;5028254;28;19928;-74
2022/10/10 13:03:11;;;;;;;;;;;24.90;46.30;;;;;;5027455;28;19920;-74
2022/10/10 13:05:38;;;;;;;;;;;24.90;45.80;;;;;;5042123;28;19932;-74
2022/10/10 13:08:04;;;;;;;;;;;24.90;45.80;;;;;;5040958;28;19952;-74
2022/10/10 13:10:30;;;;;;;;;;;24.90;45.80;;;;;;5042426;28;19921;-74
2022/10/10 13:13:01;;;;;;;;;;;25.00;45.80;;;;;;5042195;28;19917;-74
2022/10/10 13:15:27;;;;;;;;;;;25.00;45.80;;;;;;5039908;28;19913;-74
2022/10/10 13:17:52;;;;;;;;;;;25.00;45.80;;;;;;5029038;28;19921;-74
2022/10/10 13:20:34;;;;;;;;;;;25.00;45.70;;;;;;5029709;28;19921;-75
2022/10/10 13:23:01;;;;;;;;;;;25.00;45.70;;;;;;5022391;28;20304;-74
2022/10/10 13:25:27;;;;;;;;;;;25.00;45.80;;;;;;5010020;28;19921;-74
2022/10/10 13:27:52;;;;;;;;;;;25.00;45.90;;;;;;5027975;28;19955;-74
2022/10/10 13:30:18;;;;;;;;;;;24.90;46.00;;;;;;5026695;28;19964;-74
2022/10/10 13:32:43;;;;;;;;;;;24.80;46.20;;;;;;5025179;28;19982;-74
2022/10/10 13:35:14;;;;;;;;;;;24.70;46.40;;;;;;5022854;28;19977;-74
2022/10/10 13:37:44;;;;;;;;;;;24.70;46.50;;;;;;5028258;28;19921;-74
2022/10/10 13:40:13;;;;;;;;;;;24.80;46.50;;;;;;5029757;28;19928;-74
2022/10/10 13:42:39;;;;;;;;;;;24.80;46.40;;;;;;5011102;28;20398;-74
2022/10/10 13:45:23;;;;;;;;;;;24.90;46.30;;;;;;5034558;28;19979;-74
2022/10/10 13:48:15;;;;;;;;;;;25.00;46.20;;;;;;5045139;28;19920;-74
2022/10/10 13:50:40;;;;;;;;;;;25.00;46.00;;;;;;5043537;28;20003;-74
2022/10/10 13:53:22;;;;;;;;;;;25.10;46.00;;;;;;5049047;28;20400;-73
2022/10/10 13:55:47;;;;;;;;;;;25.20;46.00;;;;;;5050048;28;19927;-74
2022/10/10 13:58:13;;;;;;;;;;;25.20;46.00;;;;;;5031486;28;20454;-74
2022/10/10 14:00:39;;;;;;;;;;;25.10;46.20;;;;;;5031837;28;20565;-74
2022/10/10 14:03:14;;;;;;;;;;;24.90;46.40;;;;;;5031869;28;20404;-74
2022/10/10 14:05:41;;;;;;;;;;;24.90;46.60;;;;;;5027637;28;20404;-74
2022/10/10 14:08:11;;;;;;;;;;;24.80;46.80;;;;;;5026483;28;20004;-74
2022/10/10 14:10:36;;;;;;;;;;;24.70;46.90;;;;;;5029641;28;20420;-74
2022/10/10 14:13:02;;;;;;;;;;;24.70;47.00;;;;;;5025195;28;19959;-73
2022/10/10 14:15:40;;;;;;;;;;;24.60;47.00;;;;;;5028043;28;19917;-74
2022/10/10 14:18:15;;;;;;;;;;;24.70;47.10;;;;;;5026767;28;19917;-75
2022/10/10 14:20:40;;;;;;;;;;;24.70;46.90;;;;;;5026299;28;19968;-74